createdAt,value
2018-02-23T00:01:48.403Z,8.48
2018-02-23T00:04:15.964Z,8.52
2018-02-23T00:06:43.485Z,8.49
2018-02-23T00:09:11.030Z,8.51
2018-02-23T00:11:38.585Z,8.50
2018-02-23T00:14:06.974Z,8.49
2018-02-23T00:16:34.634Z,8.48
2018-02-23T00:19:02.187Z,8.50
2018-02-23T00:21:29.738Z,8.50
2018-02-23T00:23:57.270Z,8.52
2018-02-23T00:26:24.829Z,8.52
2018-02-23T00:28:52.352Z,8.53
2018-02-23T00:31:19.998Z,8.53
2018-02-23T00:33:47.500Z,8.54
2018-02-23T00:36:15.102Z,8.50
2018-02-23T00:38:42.624Z,8.56
2018-02-23T00:41:10.159Z,8.57
2018-02-23T00:43:37.700Z,8.56
2018-02-23T00:46:05.259Z,8.57
2018-02-23T00:48:32.792Z,8.59
2018-02-23T00:51:00.302Z,8.56
2018-02-23T00:53:27.832Z,8.56
2018-02-23T00:55:55.405Z,8.54
2018-02-23T00:58:22.943Z,8.56
2018-02-23T01:00:50.500Z,8.59
2018-02-23T01:03:18.037Z,8.58
2018-02-23T01:05:45.594Z,8.59
2018-02-23T01:08:13.126Z,8.58
2018-02-23T01:10:40.656Z,8.60
2018-02-23T01:13:08.224Z,8.58
2018-02-23T01:15:35.765Z,8.55
2018-02-23T01:18:03.326Z,8.59
2018-02-23T01:20:30.853Z,8.59
2018-02-23T01:22:58.354Z,8.58
2018-02-23T01:25:25.874Z,8.60
2018-02-23T01:27:53.426Z,8.57
2018-02-23T01:30:21.030Z,8.59
2018-02-23T01:32:48.588Z,8.55
2018-02-23T01:35:16.248Z,8.56
2018-02-23T01:37:43.764Z,8.57
2018-02-23T01:40:11.343Z,8.56
2018-02-23T01:42:39.047Z,8.56
2018-02-23T01:45:06.571Z,8.54
2018-02-23T01:47:34.098Z,8.55
2018-02-23T01:50:01.627Z,8.56
2018-02-23T01:52:29.195Z,8.53
2018-02-23T01:54:56.776Z,8.53
2018-02-23T01:57:24.325Z,8.55
2018-02-23T01:59:51.949Z,8.57
2018-02-23T02:02:20.311Z,8.56
2018-02-23T02:04:47.832Z,8.59
2018-02-23T02:07:15.370Z,8.57
2018-02-23T02:09:42.889Z,8.57
2018-02-23T02:12:10.439Z,8.57
2018-02-23T02:14:37.956Z,8.54
2018-02-23T02:17:05.473Z,8.57
2018-02-23T02:19:33.002Z,8.55
2018-02-23T02:22:00.526Z,8.55
2018-02-23T02:24:28.036Z,8.58
2018-02-23T02:26:55.819Z,8.57
2018-02-23T02:29:23.391Z,8.52
2018-02-23T02:31:50.982Z,8.56
2018-02-23T02:34:18.505Z,8.58
2018-02-23T02:36:46.077Z,8.58
2018-02-23T02:39:13.602Z,8.61
2018-02-23T02:41:41.181Z,8.61
2018-02-23T02:44:08.740Z,8.63
2018-02-23T02:46:36.246Z,8.61
2018-02-23T02:49:03.757Z,8.62
2018-02-23T02:51:31.276Z,8.61
2018-02-23T02:53:58.824Z,8.62
2018-02-23T02:56:26.364Z,8.64
2018-02-23T02:58:53.899Z,8.63
2018-02-23T03:01:21.458Z,8.65
2018-02-23T03:03:48.966Z,8.62
2018-02-23T03:06:16.480Z,8.65
2018-02-23T03:08:44.000Z,8.63
2018-02-23T03:11:11.522Z,8.66
2018-02-23T03:13:39.043Z,8.64
2018-02-23T03:16:06.553Z,8.65
2018-02-23T03:18:34.053Z,8.63
2018-02-23T03:21:01.557Z,8.58
2018-02-23T03:23:29.072Z,8.60
2018-02-23T03:25:56.592Z,8.61
2018-02-23T03:28:24.093Z,8.64
2018-02-23T03:30:51.643Z,8.55
2018-02-23T03:33:19.181Z,8.61
2018-02-23T03:35:46.696Z,8.64
2018-02-23T03:38:14.215Z,8.61
2018-02-23T03:40:41.720Z,8.63
2018-02-23T03:43:09.251Z,8.58
2018-02-23T03:45:36.756Z,8.59
2018-02-23T03:48:04.283Z,8.61
2018-02-23T03:50:31.787Z,8.57
2018-02-23T03:52:59.309Z,8.58
2018-02-23T03:55:26.980Z,8.55
2018-02-23T03:57:54.501Z,8.56
2018-02-23T04:00:22.132Z,8.57
2018-02-23T04:02:49.645Z,8.57
2018-02-23T04:05:17.235Z,8.57
2018-02-23T04:07:44.747Z,8.57
2018-02-23T04:10:12.335Z,8.56
2018-02-23T04:12:39.873Z,8.56
2018-02-23T04:15:07.395Z,8.56
2018-02-23T04:17:34.913Z,8.58
2018-02-23T04:20:02.431Z,8.57
2018-02-23T04:22:29.944Z,8.58
2018-02-23T04:24:57.475Z,8.55
2018-02-23T04:27:24.988Z,8.57
2018-02-23T04:29:52.530Z,8.56
2018-02-23T04:32:20.050Z,8.59
2018-02-23T04:34:47.621Z,8.55
2018-02-23T04:37:15.163Z,8.55
2018-02-23T04:39:42.692Z,8.54
2018-02-23T04:42:10.191Z,8.50
2018-02-23T04:44:37.702Z,8.53
2018-02-23T04:47:05.395Z,8.53
2018-02-23T04:49:32.952Z,8.55
2018-02-23T04:52:00.458Z,8.54
2018-02-23T04:54:27.971Z,8.55
2018-02-23T04:56:55.473Z,8.50
2018-02-23T04:59:23.012Z,8.49
2018-02-23T05:01:50.546Z,8.51
2018-02-23T05:04:18.074Z,8.52
2018-02-23T05:06:45.602Z,8.46
2018-02-23T05:09:13.122Z,8.49
2018-02-23T05:11:40.701Z,8.51
2018-02-23T05:14:08.257Z,8.50
2018-02-23T05:16:35.775Z,8.49
2018-02-23T05:19:03.339Z,8.48
2018-02-23T05:21:30.885Z,8.47
2018-02-23T05:23:58.400Z,8.49
2018-02-23T05:26:25.934Z,8.44
2018-02-23T05:28:53.441Z,8.53
2018-02-23T05:31:21.068Z,8.52
2018-02-23T05:33:48.646Z,8.54
2018-02-23T05:36:16.190Z,8.56
2018-02-23T05:38:43.685Z,8.57
2018-02-23T05:41:11.190Z,8.59
2018-02-23T05:43:38.765Z,8.60
2018-02-23T05:46:06.332Z,8.63
2018-02-23T05:48:33.870Z,8.63
2018-02-23T05:51:01.387Z,8.66
2018-02-23T05:53:28.982Z,8.47
2018-02-23T05:55:56.528Z,8.64
2018-02-23T05:58:24.095Z,8.69
2018-02-23T06:00:51.653Z,8.68
2018-02-23T06:03:19.202Z,8.72
2018-02-23T06:05:46.763Z,8.73
2018-02-23T06:08:14.275Z,8.72
2018-02-23T06:10:41.843Z,8.71
2018-02-23T06:13:09.601Z,8.75
2018-02-23T06:15:42.914Z,8.80
2018-02-23T06:18:10.480Z,8.80
2018-02-23T06:20:38.109Z,8.79
2018-02-23T06:23:05.636Z,8.83
2018-02-23T06:25:33.181Z,8.83
2018-02-23T06:28:00.847Z,8.84
2018-02-23T06:30:28.385Z,8.86
2018-02-23T06:32:55.929Z,8.87
2018-02-23T06:35:23.567Z,8.91
2018-02-23T06:37:51.125Z,8.94
2018-02-23T06:40:18.649Z,9.01
2018-02-23T06:42:46.266Z,8.97
2018-02-23T06:45:13.798Z,8.96
2018-02-23T06:47:41.304Z,9.03
2018-02-23T06:50:08.814Z,9.05
2018-02-23T06:52:36.377Z,9.06
2018-02-23T06:55:04.049Z,9.11
2018-02-23T06:57:31.690Z,9.10
2018-02-23T06:59:59.241Z,9.08
2018-02-23T07:02:26.768Z,9.12
2018-02-23T07:04:54.271Z,9.08
2018-02-23T07:07:21.809Z,9.13
2018-02-23T07:09:49.345Z,9.15
2018-02-23T07:12:16.896Z,9.17
2018-02-23T07:14:44.503Z,9.18
2018-02-23T07:17:12.049Z,9.24
2018-02-23T07:19:39.706Z,9.27
2018-02-23T07:22:07.308Z,9.30
2018-02-23T07:24:34.834Z,9.31
2018-02-23T07:27:02.344Z,9.30
2018-02-23T07:29:29.862Z,9.31
2018-02-23T07:31:57.409Z,9.38
2018-02-23T07:34:24.947Z,9.44
2018-02-23T07:36:52.471Z,9.44
2018-02-23T07:39:19.978Z,9.48
2018-02-23T07:41:47.481Z,9.48
2018-02-23T07:44:15.034Z,9.43
2018-02-23T07:46:42.561Z,9.58
2018-02-23T07:49:10.100Z,9.53
2018-02-23T07:51:37.617Z,9.61
2018-02-23T07:54:05.560Z,9.66
2018-02-23T07:56:33.220Z,9.66
2018-02-23T07:59:00.734Z,9.73
2018-02-23T08:01:28.279Z,9.78
2018-02-23T08:03:55.781Z,9.83
2018-02-23T08:06:23.293Z,9.85
2018-02-23T08:08:50.814Z,10.02
2018-02-23T08:11:18.342Z,10.06
2018-02-23T08:13:45.877Z,10.18
2018-02-23T08:16:13.419Z,10.19
2018-02-23T08:18:40.952Z,10.26
2018-02-23T08:21:08.486Z,10.32
2018-02-23T08:23:36.007Z,10.28
2018-02-23T08:26:03.541Z,10.26
2018-02-23T08:28:31.062Z,10.27
2018-02-23T08:30:58.607Z,10.29
2018-02-23T08:33:26.200Z,10.29
2018-02-23T08:35:53.718Z,10.38
2018-02-23T08:38:21.250Z,10.50
2018-02-23T08:40:48.757Z,10.47
2018-02-23T08:43:16.301Z,10.50
2018-02-23T08:45:43.824Z,10.55
2018-02-23T08:48:11.370Z,10.59
2018-02-23T08:50:38.913Z,10.64
2018-02-23T08:53:06.455Z,10.73
2018-02-23T08:55:34.044Z,10.83
2018-02-23T08:58:01.561Z,10.83
2018-02-23T09:03:31.459Z,10.85
2018-02-23T09:05:59.044Z,11.01
2018-02-23T09:08:27.605Z,11.05
2018-02-23T09:10:55.134Z,11.07
2018-02-23T09:13:22.650Z,11.09
2018-02-23T09:15:50.199Z,11.11
2018-02-23T09:18:18.601Z,11.21
2018-02-23T09:20:46.115Z,11.11
2018-02-23T09:23:13.654Z,11.20
2018-02-23T09:25:41.173Z,11.18
2018-02-23T09:28:08.669Z,11.27
2018-02-23T09:30:36.203Z,11.24
2018-02-23T09:33:03.870Z,11.16
2018-02-23T09:35:31.434Z,11.13
2018-02-23T09:37:58.951Z,11.16
2018-02-23T09:40:26.468Z,11.16
2018-02-23T09:42:54.062Z,11.16
2018-02-23T09:45:21.668Z,11.21
2018-02-23T09:47:49.209Z,11.34
2018-02-23T09:50:16.868Z,11.45
2018-02-23T09:52:44.452Z,11.48
2018-02-23T09:55:11.981Z,11.63
2018-02-23T09:57:39.531Z,11.71
2018-02-23T10:00:07.462Z,11.86
2018-02-23T10:02:34.992Z,12.20
2018-02-23T10:05:02.568Z,12.42
2018-02-23T10:07:30.150Z,12.52
2018-02-23T10:09:57.726Z,12.75
2018-02-23T10:12:25.271Z,12.74
2018-02-23T10:14:52.851Z,12.70
2018-02-23T10:17:20.415Z,12.75
2018-02-23T10:19:47.997Z,12.99
2018-02-23T10:22:15.541Z,13.72
2018-02-23T10:24:43.077Z,13.90
2018-02-23T10:27:10.609Z,13.71
2018-02-23T10:29:38.144Z,13.59
2018-02-23T10:32:05.705Z,13.43
2018-02-23T10:34:33.221Z,13.34
2018-02-23T10:37:00.740Z,13.37
2018-02-23T10:39:28.494Z,13.47
2018-02-23T10:41:56.006Z,13.44
2018-02-23T10:44:23.534Z,13.36
2018-02-23T10:46:51.047Z,13.37
2018-02-23T10:49:18.670Z,13.34
2018-02-23T10:51:46.349Z,13.29
2018-02-23T10:54:13.849Z,13.22
2018-02-23T10:56:41.404Z,13.22
2018-02-23T10:59:08.936Z,13.21
2018-02-23T11:01:36.483Z,13.26
2018-02-23T11:04:04.031Z,13.40
2018-02-23T11:06:31.569Z,13.63
2018-02-23T11:08:59.543Z,13.81
2018-02-23T11:11:27.053Z,13.95
2018-02-23T11:13:54.727Z,14.14
2018-02-23T11:16:22.255Z,14.08
2018-02-23T11:18:49.784Z,13.79
2018-02-23T11:21:17.337Z,13.96
2018-02-23T11:23:44.858Z,13.83
2018-02-23T11:26:12.408Z,13.76
2018-02-23T11:28:39.923Z,13.78
2018-02-23T11:31:07.461Z,13.72
2018-02-23T11:33:34.984Z,13.45
2018-02-23T11:36:02.599Z,13.41
2018-02-23T11:38:30.168Z,13.37
2018-02-23T11:40:57.673Z,13.29
2018-02-23T11:43:25.203Z,13.32
2018-02-23T11:45:52.811Z,13.34
2018-02-23T11:48:20.336Z,13.45
2018-02-23T11:50:47.984Z,13.45
2018-02-23T11:53:15.569Z,13.28
2018-02-23T11:55:43.124Z,13.34
2018-02-23T11:58:10.649Z,13.67
2018-02-23T12:00:38.221Z,13.98
2018-02-23T12:03:05.748Z,14.41
2018-02-23T12:05:33.249Z,14.47
2018-02-23T12:08:00.790Z,14.44
2018-02-23T12:10:28.310Z,14.25
2018-02-23T12:12:55.844Z,14.29
2018-02-23T12:15:23.359Z,14.18
2018-02-23T12:17:50.950Z,14.01
2018-02-23T12:20:18.463Z,13.98
2018-02-23T12:22:46.246Z,13.95
2018-02-23T12:25:13.843Z,13.92
2018-02-23T12:27:41.960Z,14.05
2018-02-23T12:30:09.561Z,14.33
2018-02-23T12:32:37.121Z,14.64
2018-02-23T12:35:04.640Z,14.84
2018-02-23T12:37:32.179Z,15.15
2018-02-23T12:39:59.712Z,15.12
2018-02-23T12:42:27.861Z,15.07
2018-02-23T12:44:55.383Z,15.08
2018-02-23T12:47:22.903Z,15.09
2018-02-23T12:49:50.410Z,14.96
2018-02-23T12:52:18.152Z,14.88
2018-02-23T12:54:45.702Z,14.67
2018-02-23T12:57:13.245Z,14.58
2018-02-23T12:59:40.784Z,14.60
2018-02-23T13:02:08.339Z,14.50
2018-02-23T13:04:35.846Z,14.46
2018-02-23T13:07:03.392Z,14.44
2018-02-23T13:09:30.959Z,14.44
2018-02-23T13:11:58.674Z,14.34
2018-02-23T13:14:31.822Z,14.30
2018-02-23T13:16:59.338Z,14.07
2018-02-23T13:19:26.866Z,13.95
2018-02-23T13:21:54.396Z,13.84
2018-02-23T13:24:21.926Z,13.90
2018-02-23T13:26:49.478Z,13.80
2018-02-23T13:29:17.013Z,13.77
2018-02-23T13:31:44.863Z,13.72
2018-02-23T13:34:12.620Z,13.62
2018-02-23T13:36:40.563Z,13.45
2018-02-23T13:39:08.910Z,13.39
2018-02-23T13:41:41.357Z,13.29
2018-02-23T13:44:09.079Z,13.21
2018-02-23T13:46:36.645Z,13.17
2018-02-23T13:49:04.221Z,13.22
2018-02-23T13:51:31.740Z,13.18
2018-02-23T13:54:04.882Z,13.07
2018-02-23T13:56:32.485Z,12.87
2018-02-23T13:59:00.736Z,12.95
2018-02-23T14:01:28.308Z,12.86
2018-02-23T14:03:55.895Z,12.96
2018-02-23T14:06:29.232Z,12.85
2018-02-23T14:08:56.912Z,12.75
2018-02-23T14:11:24.438Z,12.60
2018-02-23T14:13:51.969Z,12.48
2018-02-23T14:16:20.420Z,12.42
2018-02-23T14:18:47.973Z,12.44
2018-02-23T14:21:15.501Z,12.36
2018-02-23T14:23:43.035Z,12.23
2018-02-23T14:26:10.561Z,12.15
2018-02-23T14:28:38.200Z,12.04
2018-02-23T14:31:05.747Z,12.07
2018-02-23T14:33:33.260Z,11.90
2018-02-23T14:36:00.776Z,11.96
2018-02-23T14:38:28.340Z,11.99
2018-02-23T14:40:56.009Z,11.90
2018-02-23T14:43:24.230Z,11.88
2018-02-23T14:45:51.806Z,11.81
2018-02-23T14:48:31.070Z,11.75
2018-02-23T14:51:10.963Z,11.64
2018-02-23T14:53:38.492Z,11.56
2018-02-23T14:56:06.065Z,11.54
2018-02-23T14:58:33.590Z,11.41
2018-02-23T15:01:01.143Z,11.40
2018-02-23T15:03:28.683Z,11.46
2018-02-23T15:05:56.210Z,11.29
2018-02-23T15:08:23.735Z,11.33
2018-02-23T15:10:51.309Z,11.29
2018-02-23T15:13:18.841Z,11.14
2018-02-23T15:15:46.481Z,11.14
2018-02-23T15:18:14.079Z,11.12
2018-02-23T15:20:41.649Z,11.06
2018-02-23T15:23:09.212Z,11.00
2018-02-23T15:25:36.731Z,10.99
2018-02-23T15:28:04.268Z,10.91
2018-02-23T15:30:43.572Z,10.86
2018-02-23T15:33:11.110Z,10.81
2018-02-23T15:35:38.693Z,10.66
2018-02-23T15:38:06.266Z,10.69
2018-02-23T15:40:33.804Z,10.64
2018-02-23T15:43:01.331Z,10.54
2018-02-23T15:45:28.862Z,10.51
2018-02-23T15:51:14.547Z,10.45
2018-02-23T15:53:42.245Z,10.38
2018-02-23T15:56:09.801Z,10.28
2018-02-23T15:58:39.129Z,10.30
2018-02-23T16:01:06.670Z,10.26
2018-02-23T16:03:35.002Z,10.23
2018-02-23T16:06:02.630Z,10.20
2018-02-23T16:08:31.857Z,10.21
2018-02-23T16:10:59.372Z,10.18
2018-02-23T16:13:27.872Z,10.15
2018-02-23T16:15:55.404Z,10.10
2018-02-23T16:18:22.936Z,10.02
2018-02-23T16:20:50.502Z,10.02
2018-02-23T16:23:18.163Z,10.04
2018-02-23T16:25:45.687Z,10.01
2018-02-23T16:28:13.223Z,9.97
2018-02-23T16:30:40.808Z,9.98
2018-02-23T16:33:08.310Z,9.96
2018-02-23T16:35:35.866Z,9.97
2018-02-23T16:38:03.359Z,9.93
2018-02-23T16:40:30.995Z,9.80
2018-02-23T16:42:58.660Z,9.85
2018-02-23T16:45:26.246Z,9.81
2018-02-23T16:47:53.762Z,9.78
2018-02-23T16:50:22.188Z,9.76
2018-02-23T16:52:50.633Z,9.64
2018-02-23T16:55:18.189Z,9.66
2018-02-23T16:57:46.517Z,9.65
2018-02-23T17:00:14.051Z,9.65
2018-02-23T17:02:41.562Z,9.60
2018-02-23T17:05:09.084Z,9.55
2018-02-23T17:07:36.637Z,9.52
2018-02-23T17:10:04.144Z,9.48
2018-02-23T17:12:31.652Z,9.41
2018-02-23T17:14:59.179Z,9.40
2018-02-23T17:17:26.691Z,9.39
2018-02-23T17:19:54.364Z,9.26
2018-02-23T17:22:21.893Z,9.31
2018-02-23T17:24:49.402Z,9.36
2018-02-23T17:27:16.929Z,9.31
2018-02-23T17:29:44.448Z,9.32
2018-02-23T17:32:12.044Z,9.28
2018-02-23T17:34:39.656Z,9.24
2018-02-23T17:37:07.231Z,9.22
2018-02-23T17:39:34.815Z,9.21
2018-02-23T17:42:02.351Z,9.18
2018-02-23T17:44:29.866Z,9.10
2018-02-23T17:46:57.401Z,9.19
2018-02-23T17:49:24.994Z,9.02
2018-02-23T17:51:52.553Z,9.26
2018-02-23T17:54:21.116Z,9.23
2018-02-23T17:56:48.665Z,9.20
2018-02-23T17:59:16.423Z,9.14
2018-02-23T18:01:44.017Z,9.16
2018-02-23T18:04:11.560Z,9.15
2018-02-23T18:06:39.144Z,9.12
2018-02-23T18:09:06.696Z,9.11
2018-02-23T18:11:34.224Z,9.02
2018-02-23T18:14:01.769Z,9.11
2018-02-23T18:16:29.390Z,9.06
2018-02-23T18:18:57.049Z,9.09
2018-02-23T18:21:24.550Z,9.05
2018-02-23T18:23:52.070Z,9.11
2018-02-23T18:26:19.582Z,9.14
2018-02-23T18:28:47.091Z,9.09
2018-02-23T18:31:14.660Z,9.14
2018-02-23T18:33:42.213Z,9.17
2018-02-23T18:36:09.748Z,9.10
2018-02-23T18:38:37.280Z,9.16
2018-02-23T18:41:04.807Z,9.12
2018-02-23T18:43:32.346Z,9.19
2018-02-23T18:45:59.915Z,9.19
2018-02-23T18:48:27.518Z,9.19
2018-02-23T18:50:55.067Z,9.18
2018-02-23T18:53:22.642Z,9.18
2018-02-23T18:55:50.172Z,9.21
2018-02-23T18:58:18.239Z,9.15
2018-02-23T19:00:45.769Z,9.01
2018-02-23T19:03:13.484Z,9.20
2018-02-23T19:05:40.997Z,9.19
2018-02-23T19:08:08.526Z,9.21
2018-02-23T19:10:36.186Z,9.21
2018-02-23T19:13:03.738Z,9.22
2018-02-23T19:15:31.498Z,9.21
2018-02-23T19:17:59.026Z,9.21
2018-02-23T19:20:26.556Z,9.17
2018-02-23T19:22:54.141Z,9.19
2018-02-23T19:25:22.671Z,9.12
2018-02-23T19:27:50.307Z,9.21
2018-02-23T19:30:17.900Z,9.18
2018-02-23T19:32:45.488Z,9.19
2018-02-23T19:35:13.625Z,9.18
2018-02-23T19:37:41.155Z,9.18
2018-02-23T19:40:09.015Z,9.18
2018-02-23T19:42:36.572Z,9.19
2018-02-23T19:45:04.117Z,9.19
2018-02-23T19:47:31.638Z,9.21
2018-02-23T19:49:59.200Z,9.22
2018-02-23T19:52:26.809Z,9.21
2018-02-23T19:54:54.384Z,9.16
2018-02-23T19:57:21.919Z,9.18
2018-02-23T19:59:49.517Z,9.19
2018-02-23T20:02:17.195Z,9.28
2018-02-23T20:04:44.872Z,10.51
2018-02-23T20:07:12.440Z,10.77
2018-02-23T20:09:39.966Z,10.72
2018-02-23T20:12:07.520Z,10.43
2018-02-23T20:14:35.052Z,10.23
2018-02-23T20:17:02.588Z,10.04
2018-02-23T20:19:30.292Z,10.03
2018-02-23T20:21:57.847Z,10.58
2018-02-23T20:24:25.402Z,10.41
2018-02-23T20:26:52.939Z,10.27
2018-02-23T20:29:20.455Z,10.12
2018-02-23T20:31:48.070Z,10.03
2018-02-23T20:34:15.626Z,9.86
2018-02-23T20:36:43.258Z,9.85
2018-02-23T20:39:11.748Z,10.69
2018-02-23T20:41:39.307Z,10.70
2018-02-23T20:44:07.115Z,10.53
2018-02-23T20:46:34.691Z,10.40
2018-02-23T20:49:02.303Z,10.22
2018-02-23T20:51:29.859Z,10.17
2018-02-23T20:53:57.524Z,10.06
2018-02-23T20:56:25.279Z,9.98
2018-02-23T20:58:52.817Z,9.95
2018-02-23T21:01:20.382Z,9.86
2018-02-23T21:03:47.901Z,9.85
2018-02-23T21:06:15.421Z,9.75
2018-02-23T21:08:42.956Z,9.72
2018-02-23T21:11:10.485Z,9.69
2018-02-23T21:13:38.060Z,9.67
2018-02-23T21:16:05.628Z,9.60
2018-02-23T21:18:33.162Z,9.55
2018-02-23T21:21:00.700Z,9.52
2018-02-23T21:23:28.218Z,9.49
2018-02-23T21:25:55.761Z,9.45
2018-02-23T21:28:23.283Z,9.44
2018-02-23T21:30:50.826Z,9.44
2018-02-23T21:33:18.350Z,9.39
2018-02-23T21:35:45.878Z,9.37
2018-02-23T21:38:13.438Z,9.37
2018-02-23T21:40:40.964Z,9.40
2018-02-23T21:43:08.495Z,9.37
2018-02-23T21:45:36.045Z,9.32
2018-02-23T21:48:03.594Z,9.34
2018-02-23T21:50:31.171Z,9.30
2018-02-23T21:52:58.747Z,9.29
2018-02-23T21:55:26.304Z,9.30
2018-02-23T21:57:53.913Z,9.34
2018-02-23T22:00:21.493Z,9.31
2018-02-23T22:02:49.079Z,9.31
2018-02-23T22:05:16.660Z,9.22
2018-02-23T22:07:44.262Z,9.22
2018-02-23T22:10:11.810Z,9.24
2018-02-23T22:12:39.410Z,9.23
2018-02-23T22:15:07.028Z,9.25
2018-02-23T22:17:34.560Z,9.22
2018-02-23T22:20:02.127Z,9.24
2018-02-23T22:22:29.710Z,9.23
2018-02-23T22:24:57.353Z,9.20
2018-02-23T22:27:24.912Z,9.23
2018-02-23T22:29:52.474Z,9.17
2018-02-23T22:32:20.010Z,9.19
2018-02-23T22:34:47.542Z,9.16
2018-02-23T22:37:15.106Z,9.15
2018-02-23T22:39:42.648Z,9.17
2018-02-23T22:42:10.178Z,9.14
2018-02-23T22:44:37.687Z,9.14
2018-02-23T22:47:05.197Z,9.12
2018-02-23T22:49:32.837Z,9.10
2018-02-23T22:52:00.391Z,9.11
2018-02-23T22:54:27.911Z,9.07
2018-02-23T22:56:55.424Z,9.11
2018-02-23T22:59:22.952Z,9.10
2018-02-23T23:01:50.497Z,8.95
2018-02-23T23:04:18.011Z,9.07
2018-02-23T23:06:45.512Z,9.06
2018-02-23T23:09:13.057Z,9.07
2018-02-23T23:11:40.579Z,9.08
2018-02-23T23:14:08.125Z,9.06
2018-02-23T23:16:35.642Z,9.08
2018-02-23T23:19:03.174Z,9.06
2018-02-23T23:21:30.685Z,9.09
2018-02-23T23:23:58.692Z,9.07
2018-02-23T23:26:26.307Z,9.03
2018-02-23T23:28:53.836Z,9.05
2018-02-23T23:31:21.546Z,9.07
2018-02-23T23:33:49.181Z,9.03
2018-02-23T23:36:16.709Z,9.06
2018-02-23T23:38:44.241Z,9.04
2018-02-23T23:41:11.745Z,9.06
2018-02-23T23:43:41.236Z,9.04
2018-02-23T23:46:08.745Z,9.04
2018-02-23T23:48:36.334Z,9.01
2018-02-23T23:51:03.959Z,9.01
2018-02-23T23:53:31.510Z,9.04
2018-02-23T23:55:59.082Z,9.01
2018-02-23T23:58:26.987Z,9.01
